createdAt,value
2023-04-28T00:01:30.417Z,100545.84
2023-04-28T00:03:58.512Z,100538.84
2023-04-28T00:06:25.365Z,100533.50
2023-04-28T00:08:51.802Z,100532.66
2023-04-28T00:11:18.257Z,100526.69
2023-04-28T00:13:44.720Z,100528.53
2023-04-28T00:16:11.304Z,100519.16
2023-04-28T00:18:37.759Z,100512.09
2023-04-28T00:21:04.631Z,100500.78
2023-04-28T00:23:31.244Z,100505.94
2023-04-28T00:25:57.923Z,100501.56
2023-04-28T00:30:53.666Z,100493.63
2023-04-28T00:33:20.109Z,100487.59
2023-04-28T00:35:46.691Z,100485.00
2023-04-28T00:38:13.123Z,100477.09
2023-04-28T00:40:39.801Z,100490.22
2023-04-28T00:43:06.234Z,100488.53
2023-04-28T00:45:32.779Z,100485.94
2023-04-28T00:48:00.512Z,100485.03
2023-04-28T00:50:27.112Z,100477.19
2023-04-28T00:52:53.529Z,100485.91
2023-04-28T00:55:21.787Z,100486.72
2023-04-28T00:57:48.500Z,100482.28
2023-04-28T01:00:15.453Z,100474.34
2023-04-28T01:02:42.003Z,100472.69
2023-04-28T01:05:10.052Z,100472.63
2023-04-28T01:07:37.184Z,100471.94
2023-04-28T01:10:03.928Z,100474.78
2023-04-28T01:12:30.814Z,100468.91
2023-04-28T01:14:57.544Z,100474.94
2023-04-28T01:17:24.466Z,100470.56
2023-04-28T01:19:52.901Z,100471.44
2023-04-28T01:22:19.456Z,100465.25
2023-04-28T01:24:45.857Z,100469.50
2023-04-28T01:27:12.301Z,100464.31
2023-04-28T01:29:38.760Z,100479.28
2023-04-28T01:32:05.425Z,100469.88
2023-04-28T01:34:31.872Z,100468.25
2023-04-28T01:36:58.315Z,100467.28
2023-04-28T01:39:24.809Z,100467.19
2023-04-28T01:41:51.380Z,100467.19
2023-04-28T01:44:18.129Z,100462.81
2023-04-28T01:46:44.827Z,100466.22
2023-04-28T01:49:11.377Z,100464.47
2023-04-28T01:51:47.158Z,100460.06
2023-04-28T01:54:13.688Z,100458.50
2023-04-28T01:56:40.712Z,100462.09
2023-04-28T01:59:07.159Z,100456.94
2023-04-28T02:01:33.643Z,100459.50
2023-04-28T02:04:00.179Z,100464.69
2023-04-28T02:06:27.888Z,100448.03
2023-04-28T02:08:54.410Z,100433.22
2023-04-28T02:11:21.101Z,100440.22
2023-04-28T02:13:47.496Z,100441.91
2023-04-28T02:16:14.018Z,100443.53
2023-04-28T02:18:40.507Z,100436.53
2023-04-28T02:21:11.962Z,100435.63
2023-04-28T02:23:39.128Z,100439.94
2023-04-28T02:26:06.235Z,100433.78
2023-04-28T02:28:32.907Z,100428.59
2023-04-28T02:31:11.299Z,100430.41
2023-04-28T02:33:38.353Z,100440.91
2023-04-28T02:36:06.581Z,100438.34
2023-04-28T02:38:33.182Z,100444.47
2023-04-28T02:41:09.368Z,100443.56
2023-04-28T02:43:37.179Z,100436.63
2023-04-28T02:46:04.529Z,100438.34
2023-04-28T02:48:30.971Z,100434.81
2023-04-28T02:50:57.426Z,100434.81
2023-04-28T02:53:24.005Z,100441.81
2023-04-28T02:55:50.505Z,100440.97
2023-04-28T02:58:18.002Z,100435.69
2023-04-28T03:00:44.910Z,100434.81
2023-04-28T03:03:11.554Z,100431.31
2023-04-28T03:05:38.090Z,100427.84
2023-04-28T03:08:04.893Z,100426.06
2023-04-28T03:10:31.432Z,100430.44
2023-04-28T03:12:57.974Z,100424.34
2023-04-28T03:15:24.436Z,100420.84
2023-04-28T03:17:50.845Z,100416.53
2023-04-28T03:20:17.303Z,100415.69
2023-04-28T03:22:43.806Z,100400.84
2023-04-28T03:25:10.512Z,100400.03
2023-04-28T03:27:36.976Z,100402.69
2023-04-28T03:30:03.902Z,100405.31
2023-04-28T03:32:30.350Z,100400.06
2023-04-28T03:34:56.907Z,100395.69
2023-04-28T03:37:23.402Z,100388.75
2023-04-28T03:39:49.840Z,100383.47
2023-04-28T03:42:16.304Z,100385.19
2023-04-28T03:44:42.781Z,100382.56
2023-04-28T03:47:09.388Z,100378.25
2023-04-28T03:49:35.840Z,100372.19
2023-04-28T03:52:04.331Z,100362.59
2023-04-28T03:54:31.316Z,100360.75
2023-04-28T03:56:57.999Z,100355.47
2023-04-28T03:59:24.615Z,100347.69
2023-04-28T04:01:51.016Z,100344.19
2023-04-28T04:04:18.137Z,100325.88
2023-04-28T04:06:45.094Z,100321.53
2023-04-28T04:09:11.566Z,100332.00
2023-04-28T04:11:38.007Z,100333.72
2023-04-28T04:14:04.457Z,100321.47
2023-04-28T04:16:31.097Z,100317.94
2023-04-28T04:18:57.653Z,100313.59
2023-04-28T04:21:24.104Z,100297.91
2023-04-28T04:23:50.566Z,100294.44
2023-04-28T04:26:17.034Z,100304.91
2023-04-28T04:28:43.517Z,100311.03
2023-04-28T04:31:09.978Z,100311.84
2023-04-28T04:33:37.533Z,100324.88
2023-04-28T04:36:05.012Z,100330.13
2023-04-28T04:38:31.446Z,100327.44
2023-04-28T04:40:57.968Z,100336.13
2023-04-28T04:43:24.511Z,100325.66
2023-04-28T04:45:50.954Z,100323.03
2023-04-28T04:48:18.121Z,100317.75
2023-04-28T04:50:44.990Z,100308.13
2023-04-28T04:53:13.978Z,100300.28
2023-04-28T04:55:42.627Z,100305.53
2023-04-28T04:58:10.472Z,100296.75
2023-04-28T05:00:37.774Z,100294.16
2023-04-28T05:03:06.329Z,100289.72
2023-04-28T05:05:33.178Z,100295.88
2023-04-28T05:07:59.709Z,100302.84
2023-04-28T05:10:27.401Z,100312.44
2023-04-28T05:12:54.279Z,100308.91
2023-04-28T05:15:20.727Z,100313.28
2023-04-28T05:17:47.222Z,100316.75
2023-04-28T05:20:13.738Z,100306.22
2023-04-28T05:22:40.600Z,100294.91
2023-04-28T05:25:07.512Z,100290.53
2023-04-28T05:27:34.081Z,100294.00
2023-04-28T05:30:00.458Z,100294.03
2023-04-28T05:32:26.927Z,100300.03
2023-04-28T05:34:53.833Z,100300.88
2023-04-28T05:37:20.393Z,100295.56
2023-04-28T05:39:46.901Z,100301.72
2023-04-28T05:42:13.417Z,100302.56
2023-04-28T05:44:41.806Z,100306.03
2023-04-28T05:47:09.649Z,100292.03
2023-04-28T05:49:37.026Z,100296.38
2023-04-28T05:52:03.932Z,100290.19
2023-04-28T05:54:30.695Z,100290.16
2023-04-28T05:56:59.096Z,100295.38
2023-04-28T05:59:28.544Z,100289.28
2023-04-28T06:01:55.059Z,100283.94
2023-04-28T06:04:21.946Z,100290.84
2023-04-28T06:06:48.727Z,100282.94
2023-04-28T06:09:15.406Z,100273.22
2023-04-28T06:11:41.981Z,100283.53
2023-04-28T06:14:08.523Z,100278.19
2023-04-28T06:16:35.086Z,100269.38
2023-04-28T06:19:01.928Z,100268.31
2023-04-28T06:21:29.184Z,100269.97
2023-04-28T06:23:55.681Z,100269.91
2023-04-28T06:26:24.011Z,100274.16
2023-04-28T06:28:51.150Z,100267.03
2023-04-28T06:31:17.656Z,100259.88
2023-04-28T06:33:44.257Z,100269.44
2023-04-28T06:36:14.017Z,100273.63
2023-04-28T06:38:42.824Z,100276.06
2023-04-28T06:41:10.507Z,100281.22
2023-04-28T06:43:37.835Z,100289.13
2023-04-28T06:46:04.460Z,100282.13
2023-04-28T06:48:31.055Z,100276.66
2023-04-28T06:50:57.557Z,100286.22
2023-04-28T06:53:24.074Z,100281.00
2023-04-28T06:55:50.641Z,100279.06
2023-04-28T06:58:17.532Z,100274.53
2023-04-28T07:00:44.019Z,100267.31
2023-04-28T07:03:10.692Z,100280.50
2023-04-28T07:05:37.447Z,100276.16
2023-04-28T07:08:04.093Z,100277.91
2023-04-28T07:10:30.786Z,100279.59
2023-04-28T07:12:57.390Z,100288.19
2023-04-28T07:15:24.594Z,100283.72
2023-04-28T07:17:51.236Z,100286.09
2023-04-28T07:20:18.128Z,100292.13
2023-04-28T07:22:44.763Z,100281.66
2023-04-28T07:25:11.465Z,100286.09
2023-04-28T07:27:37.963Z,100275.66
2023-04-28T07:30:18.539Z,100279.03
2023-04-28T07:32:51.767Z,100277.03
2023-04-28T07:35:18.309Z,100267.31
2023-04-28T07:37:44.807Z,100263.78
2023-04-28T07:40:11.574Z,100278.56
2023-04-28T07:42:38.041Z,100281.97
2023-04-28T07:45:05.158Z,100286.25
2023-04-28T07:47:31.724Z,100280.09
2023-04-28T07:50:00.615Z,100277.41
2023-04-28T07:52:27.328Z,100283.56
2023-04-28T07:54:53.749Z,100282.66
2023-04-28T07:57:20.351Z,100285.97
2023-04-28T07:59:46.875Z,100294.56
2023-04-28T08:02:14.283Z,100297.81
2023-04-28T08:04:41.490Z,100292.53
2023-04-28T08:07:09.301Z,100292.53
2023-04-28T08:09:36.185Z,100289.13
2023-04-28T08:12:03.002Z,100290.00
2023-04-28T08:14:29.567Z,100274.09
2023-04-28T08:16:57.005Z,100277.59
2023-04-28T08:19:24.033Z,100270.63
2023-04-28T08:21:50.593Z,100265.97
2023-04-28T08:24:17.324Z,100270.91
2023-04-28T08:26:44.106Z,100271.50
2023-04-28T08:29:10.567Z,100273.00
2023-04-28T08:31:37.100Z,100277.19
2023-04-28T08:34:03.611Z,100277.13
2023-04-28T08:36:32.568Z,100270.03
2023-04-28T08:39:01.055Z,100278.91
2023-04-28T08:41:29.405Z,100282.97
2023-04-28T08:43:56.360Z,100276.53
2023-04-28T08:46:25.624Z,100275.34
2023-04-28T08:49:00.140Z,100274.81
2023-04-28T08:51:35.273Z,100279.88
2023-04-28T08:56:35.779Z,100282.31
2023-04-28T08:59:06.898Z,100288.63
2023-04-28T09:01:33.727Z,100292.41
2023-04-28T09:04:04.273Z,100293.53
2023-04-28T09:06:35.854Z,100295.47
2023-04-28T09:09:21.345Z,100297.25
2023-04-28T09:11:59.937Z,100290.34
2023-04-28T09:14:30.548Z,100289.59
2023-04-28T09:16:57.428Z,100288.75
2023-04-28T09:19:24.298Z,100277.41
2023-04-28T09:21:57.563Z,100279.97
2023-04-28T09:24:32.666Z,100281.53
2023-04-28T09:27:00.756Z,100281.31
2023-04-28T09:29:27.230Z,100274.09
2023-04-28T09:31:54.449Z,100269.56
2023-04-28T09:34:22.137Z,100275.59
2023-04-28T09:36:48.773Z,100268.53
2023-04-28T09:39:15.267Z,100267.59
2023-04-28T09:41:45.323Z,100263.13
2023-04-28T09:44:16.681Z,100269.69
2023-04-28T09:46:47.434Z,100269.41
2023-04-28T09:49:14.467Z,100274.59
2023-04-28T09:51:41.487Z,100271.88
2023-04-28T09:54:08.142Z,100263.16
2023-04-28T09:56:41.151Z,100267.81
2023-04-28T09:59:08.230Z,100264.44
2023-04-28T10:01:40.599Z,100265.47
2023-04-28T10:04:08.962Z,100261.13
2023-04-28T10:06:38.776Z,100255.91
2023-04-28T10:09:05.839Z,100265.56
2023-04-28T10:11:33.977Z,100268.19
2023-04-28T10:14:00.617Z,100256.81
2023-04-28T10:16:31.259Z,100261.13
2023-04-28T10:18:58.048Z,100268.06
2023-04-28T10:21:26.701Z,100263.66
2023-04-28T10:23:56.236Z,100260.09
2023-04-28T10:26:27.450Z,100262.72
2023-04-28T10:28:53.980Z,100266.22
2023-04-28T10:31:22.127Z,100255.69
2023-04-28T10:33:49.785Z,100260.94
2023-04-28T10:36:54.586Z,100262.66
2023-04-28T10:39:21.513Z,100264.38
2023-04-28T10:41:49.215Z,100277.59
2023-04-28T10:44:28.133Z,100270.63
2023-04-28T10:47:05.102Z,100264.50
2023-04-28T10:49:59.522Z,100267.19
2023-04-28T10:52:41.227Z,100264.38
2023-04-28T10:55:33.697Z,100273.09
2023-04-28T10:58:15.572Z,100267.69
2023-04-28T11:00:43.479Z,100262.31
2023-04-28T11:03:10.235Z,100265.75
2023-04-28T11:05:37.144Z,100261.31
2023-04-28T11:08:18.924Z,100262.16
2023-04-28T11:11:10.293Z,100252.41
2023-04-28T11:13:36.703Z,100255.84
2023-04-28T11:16:06.950Z,100253.00
2023-04-28T11:18:52.832Z,100250.22
2023-04-28T11:21:23.349Z,100245.72
2023-04-28T11:23:50.584Z,100241.09
2023-04-28T11:26:18.503Z,100241.09
2023-04-28T11:28:56.891Z,100241.03
2023-04-28T11:31:25.905Z,100239.19
2023-04-28T11:34:12.050Z,100235.69
2023-04-28T11:36:40.070Z,100231.44
2023-04-28T11:39:11.320Z,100233.22
2023-04-28T11:41:40.119Z,100232.38
2023-04-28T11:44:22.672Z,100230.19
2023-04-28T11:46:53.658Z,100226.75
2023-04-28T11:49:21.130Z,100228.69
2023-04-28T11:51:50.001Z,100221.84
2023-04-28T11:54:29.147Z,100223.50
2023-04-28T11:56:57.527Z,100222.03
2023-04-28T11:59:42.892Z,100229.47
2023-04-28T12:02:09.896Z,100231.25
2023-04-28T12:04:38.038Z,100238.56
2023-04-28T12:07:09.168Z,100240.41
2023-04-28T12:09:37.057Z,100231.72
2023-04-28T12:12:05.843Z,100230.91
2023-04-28T12:14:53.112Z,100225.44
2023-04-28T12:17:27.049Z,100233.75
2023-04-28T12:19:58.165Z,100232.44
2023-04-28T12:22:25.811Z,100233.78
2023-04-28T12:25:12.678Z,100230.66
2023-04-28T12:27:41.070Z,100226.38
2023-04-28T12:30:20.689Z,100226.88
2023-04-28T12:32:48.386Z,100231.06
2023-04-28T12:35:15.210Z,100228.66
2023-04-28T12:37:44.752Z,100227.47
2023-04-28T12:40:11.530Z,100214.91
2023-04-28T12:42:37.993Z,100218.16
2023-04-28T12:45:05.945Z,100210.06
2023-04-28T12:47:32.568Z,100205.13
2023-04-28T12:49:58.995Z,100211.84
2023-04-28T12:52:25.445Z,100218.44
2023-04-28T12:54:51.993Z,100215.25
2023-04-28T12:57:20.107Z,100211.88
2023-04-28T12:59:48.017Z,100221.38
2023-04-28T13:02:15.475Z,100215.09
2023-04-28T13:04:46.169Z,100211.22
2023-04-28T13:07:13.655Z,100213.72
2023-04-28T13:09:40.240Z,100204.28
2023-04-28T13:12:07.518Z,100203.94
2023-04-28T13:14:34.103Z,100199.91
2023-04-28T13:17:01.633Z,100198.03
2023-04-28T13:19:28.664Z,100191.16
2023-04-28T13:21:55.164Z,100190.31
2023-04-28T13:24:21.590Z,100193.59
2023-04-28T13:26:48.121Z,100190.72
2023-04-28T13:29:14.753Z,100181.84
2023-04-28T13:31:41.686Z,100176.28
2023-04-28T13:34:09.593Z,100165.84
2023-04-28T13:36:36.232Z,100176.53
2023-04-28T13:39:02.889Z,100173.16
2023-04-28T13:41:29.399Z,100168.34
2023-04-28T13:43:55.809Z,100165.44
2023-04-28T13:46:22.494Z,100162.06
2023-04-28T13:48:50.565Z,100154.81
2023-04-28T13:51:17.152Z,100155.84
2023-04-28T13:53:43.701Z,100157.81
2023-04-28T13:56:10.386Z,100146.03
2023-04-28T13:58:37.064Z,100160.63
2023-04-28T14:01:04.427Z,100163.19
2023-04-28T14:03:31.232Z,100156.00
2023-04-28T14:05:58.775Z,100155.47
2023-04-28T14:08:27.733Z,100148.06
2023-04-28T14:10:54.555Z,100164.72
2023-04-28T14:13:21.373Z,100158.88
2023-04-28T14:15:58.595Z,100153.44
2023-04-28T14:18:26.680Z,100148.09
2023-04-28T14:20:54.422Z,100150.41
2023-04-28T14:23:24.468Z,100149.53
2023-04-28T14:25:56.024Z,100149.53
2023-04-28T14:28:22.828Z,100144.41
2023-04-28T14:30:50.111Z,100143.81
2023-04-28T14:33:16.745Z,100147.94
2023-04-28T14:35:43.184Z,100150.50
2023-04-28T14:38:09.737Z,100156.66
2023-04-28T14:40:36.294Z,100164.75
2023-04-28T14:43:02.771Z,100169.81
2023-04-28T14:45:29.311Z,100152.91
2023-04-28T14:47:56.046Z,100157.78
2023-04-28T14:50:22.717Z,100163.81
2023-04-28T14:52:49.622Z,100164.47
2023-04-28T14:55:16.134Z,100160.69
2023-04-28T14:57:42.658Z,100147.50
2023-04-28T15:00:09.642Z,100159.34
2023-04-28T15:02:36.389Z,100160.56
2023-04-28T15:05:03.349Z,100159.72
2023-04-28T15:07:31.849Z,100174.09
2023-04-28T15:09:59.815Z,100161.00
2023-04-28T15:12:26.894Z,100163.84
2023-04-28T15:14:56.547Z,100162.41
2023-04-28T15:17:23.195Z,100169.69
2023-04-28T15:19:49.803Z,100179.09
2023-04-28T15:22:16.963Z,100196.00
2023-04-28T15:24:43.396Z,100195.91
2023-04-28T15:27:09.980Z,100201.97
2023-04-28T15:29:36.434Z,100193.19
2023-04-28T15:32:03.048Z,100229.41
2023-04-28T15:34:29.544Z,100211.38
2023-04-28T15:36:56.703Z,100242.34
2023-04-28T15:39:25.025Z,100238.13
2023-04-28T15:41:52.993Z,100234.97
2023-04-28T15:44:19.841Z,100243.84
2023-04-28T15:46:46.398Z,100283.88
2023-04-28T15:49:13.819Z,100253.22
2023-04-28T15:51:40.271Z,100258.38
2023-04-28T15:54:06.717Z,100262.16
2023-04-28T15:56:33.822Z,100266.00
2023-04-28T15:59:00.445Z,100271.59
2023-04-28T16:01:27.044Z,100254.03
2023-04-28T16:03:53.726Z,100270.19
2023-04-28T16:06:20.514Z,100274.22
2023-04-28T16:08:46.987Z,100278.75
2023-04-28T16:11:17.751Z,100273.97
2023-04-28T16:13:45.054Z,100280.75
2023-04-28T16:16:12.455Z,100293.63
2023-04-28T16:18:39.404Z,100279.16
2023-04-28T16:21:06.401Z,100301.28
2023-04-28T16:23:33.139Z,100289.84
2023-04-28T16:25:59.599Z,100310.22
2023-04-28T16:28:27.047Z,100289.38
2023-04-28T16:30:53.659Z,100295.41
2023-04-28T16:33:20.184Z,100303.50
2023-04-28T16:35:54.743Z,100302.00
2023-04-28T16:38:21.488Z,100335.47
2023-04-28T16:40:47.940Z,100316.44
2023-04-28T16:43:14.603Z,100309.50
2023-04-28T16:45:41.975Z,100303.38
2023-04-28T16:48:08.523Z,100315.09
2023-04-28T16:50:34.954Z,100312.44
2023-04-28T16:53:01.512Z,100308.78
2023-04-28T16:55:28.226Z,100309.16
2023-04-28T16:57:54.669Z,100321.84
2023-04-28T17:00:21.435Z,100321.19
2023-04-28T17:02:48.012Z,100316.03
2023-04-28T17:05:14.681Z,100313.31
2023-04-28T17:07:41.188Z,100322.97
2023-04-28T17:10:08.275Z,100326.56
2023-04-28T17:12:34.763Z,100319.09
2023-04-28T17:15:01.349Z,100325.50
2023-04-28T17:17:29.111Z,100323.00
2023-04-28T17:19:56.447Z,100319.50
2023-04-28T17:22:22.983Z,100331.97
2023-04-28T17:24:49.451Z,100329.53
2023-04-28T17:27:16.109Z,100332.16
2023-04-28T17:29:43.546Z,100333.16
2023-04-28T17:32:10.931Z,100333.25
2023-04-28T17:34:37.506Z,100329.78
2023-04-28T17:37:04.039Z,100329.94
2023-04-28T17:39:30.532Z,100324.81
2023-04-28T17:41:58.077Z,100331.88
2023-04-28T17:44:24.546Z,100331.78
2023-04-28T17:46:51.071Z,100337.06
2023-04-28T17:49:17.495Z,100338.84
2023-04-28T17:51:43.958Z,100338.19
2023-04-28T17:54:10.503Z,100343.66
2023-04-28T17:56:38.336Z,100354.28
2023-04-28T17:59:05.896Z,100341.28
2023-04-28T18:01:34.911Z,100359.88
2023-04-28T18:04:01.675Z,100352.94
2023-04-28T18:06:29.024Z,100348.53
2023-04-28T18:08:55.621Z,100356.41
2023-04-28T18:11:22.998Z,100352.94
2023-04-28T18:13:49.456Z,100361.91
2023-04-28T18:16:15.923Z,100361.31
2023-04-28T18:18:42.502Z,100368.56
2023-04-28T18:21:09.538Z,100363.53
2023-04-28T18:23:36.004Z,100374.09
2023-04-28T18:26:02.904Z,100373.31
2023-04-28T18:28:29.429Z,100368.03
2023-04-28T18:30:55.894Z,100379.59
2023-04-28T18:33:25.663Z,100379.53
2023-04-28T18:36:04.717Z,100382.16
2023-04-28T18:38:34.274Z,100371.69
2023-04-28T18:41:02.170Z,100377.75
2023-04-28T18:43:28.672Z,100382.16
2023-04-28T18:45:55.217Z,100384.88
2023-04-28T18:48:22.185Z,100380.47
2023-04-28T18:50:48.845Z,100379.69
2023-04-28T18:53:15.679Z,100377.09
2023-04-28T18:55:42.148Z,100386.84
2023-04-28T18:58:08.677Z,100378.28
2023-04-28T19:00:37.039Z,100383.53
2023-04-28T19:03:04.170Z,100383.53
2023-04-28T19:05:30.858Z,100381.94
2023-04-28T19:07:57.325Z,100390.72
2023-04-28T19:10:23.845Z,100374.94
2023-04-28T19:12:50.323Z,100376.78
2023-04-28T19:15:17.180Z,100382.00
2023-04-28T19:17:44.393Z,100382.06
2023-04-28T19:20:11.528Z,100380.34
2023-04-28T19:22:41.304Z,100388.19
2023-04-28T19:25:10.020Z,100386.47
2023-04-28T19:27:39.539Z,100399.72
2023-04-28T19:30:08.574Z,100407.56
2023-04-28T19:32:35.278Z,100398.88
2023-04-28T19:35:05.496Z,100408.47
2023-04-28T19:37:34.090Z,100404.91
2023-04-28T19:40:02.177Z,100401.44
2023-04-28T19:42:28.783Z,100401.44
2023-04-28T19:44:57.089Z,100409.34
2023-04-28T19:47:25.110Z,100416.41
2023-04-28T19:49:52.487Z,100402.38
2023-04-28T19:52:22.966Z,100409.44
2023-04-28T19:54:50.406Z,100412.06
2023-04-28T19:57:18.692Z,100414.69
2023-04-28T19:59:49.660Z,100417.44
2023-04-28T20:02:16.721Z,100420.06
2023-04-28T20:04:43.460Z,100421.00
2023-04-28T20:07:10.588Z,100412.22
2023-04-28T20:09:37.933Z,100416.66
2023-04-28T20:12:06.755Z,100419.28
2023-04-28T20:14:33.606Z,100427.19
2023-04-28T20:17:01.966Z,100423.75
2023-04-28T20:19:28.635Z,100416.22
2023-04-28T20:21:55.336Z,100416.44
2023-04-28T20:24:22.035Z,100415.78
2023-04-28T20:26:51.884Z,100417.59
2023-04-28T20:29:18.363Z,100417.59
2023-04-28T20:31:44.935Z,100416.00
2023-04-28T20:34:14.480Z,100423.91
2023-04-28T20:36:42.856Z,100419.38
2023-04-28T20:39:11.174Z,100425.50
2023-04-28T20:41:40.877Z,100412.25
2023-04-28T20:44:07.594Z,100415.09
2023-04-28T20:46:35.310Z,100424.63
2023-04-28T20:49:02.816Z,100417.59
2023-04-28T20:51:30.087Z,100427.19
2023-04-28T20:53:57.653Z,100421.03
2023-04-28T20:56:24.174Z,100419.31
2023-04-28T20:58:50.727Z,100414.00
2023-04-28T21:01:17.372Z,100427.19
2023-04-28T21:03:44.021Z,100420.69
2023-04-28T21:06:10.839Z,100430.53
2023-04-28T21:08:37.498Z,100436.84
2023-04-28T21:11:04.008Z,100436.06
2023-04-28T21:13:30.563Z,100429.28
2023-04-28T21:15:57.112Z,100433.25
2023-04-28T21:18:23.600Z,100435.31
2023-04-28T21:20:51.102Z,100424.09
2023-04-28T21:23:17.562Z,100426.88
2023-04-28T21:25:44.029Z,100427.75
2023-04-28T21:28:10.956Z,100433.13
2023-04-28T21:30:37.443Z,100442.03
2023-04-28T21:33:04.194Z,100444.72
2023-04-28T21:35:30.707Z,100436.13
2023-04-28T21:37:57.196Z,100441.53
2023-04-28T21:40:23.723Z,100439.69
2023-04-28T21:42:51.043Z,100439.56
2023-04-28T21:45:17.587Z,100434.38
2023-04-28T21:47:44.247Z,100441.41
2023-04-28T21:50:11.298Z,100437.00
2023-04-28T21:52:38.554Z,100450.22
2023-04-28T21:55:05.515Z,100442.34
2023-04-28T21:57:32.418Z,100441.44
2023-04-28T21:59:58.827Z,100441.47
2023-04-28T22:02:25.510Z,100441.53
2023-04-28T22:04:52.204Z,100442.53
2023-04-28T22:07:18.782Z,100447.13
2023-04-28T22:09:45.466Z,100448.91
2023-04-28T22:12:11.904Z,100441.88
2023-04-28T22:14:41.358Z,100453.19
2023-04-28T22:17:08.260Z,100454.16
2023-04-28T22:19:34.679Z,100441.06
2023-04-28T22:22:01.116Z,100449.75
2023-04-28T22:24:27.936Z,100455.22
2023-04-28T22:26:55.110Z,100461.34
2023-04-28T22:29:21.968Z,100458.72
2023-04-28T22:31:48.670Z,100456.94
2023-04-28T22:34:16.399Z,100453.56
2023-04-28T22:36:42.876Z,100465.00
2023-04-28T22:39:09.339Z,100467.56
2023-04-28T22:41:35.778Z,100464.19
2023-04-28T22:44:02.209Z,100465.16
2023-04-28T22:46:28.832Z,100470.47
2023-04-28T22:48:55.851Z,100477.53
2023-04-28T22:51:22.623Z,100467.03
2023-04-28T22:53:49.125Z,100473.19
2023-04-28T22:56:15.721Z,100470.50
2023-04-28T22:58:42.357Z,100479.63
2023-04-28T23:01:09.197Z,100483.19
2023-04-28T23:03:36.032Z,100483.34
2023-04-28T23:06:02.678Z,100486.81
2023-04-28T23:08:29.155Z,100495.56
2023-04-28T23:10:58.418Z,100496.59
2023-04-28T23:13:25.097Z,100492.31
2023-04-28T23:15:51.726Z,100489.03
2023-04-28T23:18:18.296Z,100510.94
2023-04-28T23:20:48.651Z,100498.84
2023-04-28T23:23:15.209Z,100489.25
2023-04-28T23:25:42.926Z,100505.00
2023-04-28T23:28:12.420Z,100504.25
2023-04-28T23:30:38.933Z,100507.97
2023-04-28T23:33:05.484Z,100509.78
2023-04-28T23:35:33.091Z,100503.69
2023-04-28T23:37:59.678Z,100507.22
2023-04-28T23:40:26.802Z,100503.75
2023-04-28T23:42:53.466Z,100515.19
2023-04-28T23:45:19.887Z,100506.44
2023-04-28T23:47:47.201Z,100513.38
2023-04-28T23:50:14.242Z,100517.78
2023-04-28T23:52:40.770Z,100514.31
2023-04-28T23:55:11.501Z,100508.19
2023-04-28T23:57:38.803Z,100516.94
